»·PEaware :: SWA6747 KLAX-KLAS

SWA6747 :: KLAX-KLAS

FLIGHT INFORMATION

Flight Status: Arrived
Operator:
Southwest Airlines
More flights by this operator :: More flights under this callsign
Pilot: Mackenzie K. (21212)
Aircraft: BOEING 737-800
(B738)
More flights by this aircraft type
Origin: KLAX Los Angeles Intl
United States
Destination: KLAS McCarran Intl
United States
More flights between these airports :: More routes between these airports
Route: OSHNN8 MISEN KEPEC6
File this flight plan on PilotEdge
Remarks:
Altitude:
(Current/Filed)
33,000ft
Speed:
(Current/Filed)
300kts
Departed: 25-Nov-18 08:17 PM
Arrived: 25-Nov-18 09:12 PM
Distance/Time
Traveled:
205nm/0:55
Distance/Time
To Go:
Arrived

Flight Plot

Page will automatically refresh every two minutes.

Flight plan parsing failed; only flown route is shown


Map Options




Map Legend


Flown Route
Filed Route
Departure Airport
Arrival Airport
Navaid (VOR, NDB)
Fix

Horizontal Profiles

Position Reports

Time Latitude Longitude Heading Altitude Ground
Speed
25-Nov-18 19:50 33.947917 -118.401531 172 116ft 0kts
25-Nov-18 19:51 33.947917 -118.401531 172 116ft 0kts
25-Nov-18 19:52 33.947917 -118.401531 172 116ft 0kts
25-Nov-18 19:53 33.947917 -118.401531 172 116ft 0kts
25-Nov-18 19:54 33.947917 -118.401531 172 116ft 0kts
25-Nov-18 19:55 33.947917 -118.401531 172 116ft 0kts
25-Nov-18 19:56 33.947917 -118.401531 172 116ft 0kts
25-Nov-18 19:57 33.947917 -118.401531 172 116ft 0kts
25-Nov-18 19:58 33.947917 -118.401531 172 116ft 0kts
25-Nov-18 19:59 33.947917 -118.401531 172 116ft 0kts
25-Nov-18 20:00 33.947917 -118.401531 172 116ft 0kts
25-Nov-18 20:01 33.947917 -118.401531 172 116ft 0kts
25-Nov-18 20:02 33.947917 -118.401531 172 116ft 0kts
25-Nov-18 20:03 33.947917 -118.401531 172 116ft 0kts
25-Nov-18 20:04 33.947917 -118.401531 172 116ft 0kts
25-Nov-18 20:05 33.947917 -118.401531 172 116ft 0kts
25-Nov-18 20:06 33.947917 -118.401531 172 116ft 0kts
25-Nov-18 20:07 33.947917 -118.401531 172 116ft 0kts
25-Nov-18 20:08 33.947917 -118.401531 172 116ft 0kts
25-Nov-18 20:09 33.947917 -118.401531 172 116ft 0kts
25-Nov-18 20:10 33.947917 -118.401531 172 116ft 0kts
25-Nov-18 20:11 33.947917 -118.401531 172 116ft 0kts
25-Nov-18 20:12 33.947917 -118.401531 172 116ft 0kts
25-Nov-18 20:13 33.948369 -118.401605 172 116ft 0kts
25-Nov-18 20:14 33.948369 -118.401605 172 116ft 0kts
25-Nov-18 20:15 33.948311 -118.401533 104 116ft 2kts
25-Nov-18 20:16 33.949404 -118.400689 354 114ft 0kts
25-Nov-18 20:17 33.949448 -118.400695 353 114ft 0kts
25-Nov-18 20:18 33.949448 -118.400695 353 114ft 0kts
25-Nov-18 20:19 33.949817 -118.400756 351 114ft 10kts
25-Nov-18 20:20 33.949419 -118.409180 263 123ft 123kts
25-Nov-18 20:21 33.943442 -118.467894 266 1902ft 236kts
25-Nov-18 20:22 33.937116 -118.575506 265 4974ft 269kts
25-Nov-18 20:23 33.859120 -118.639061 178 5007ft 273kts
25-Nov-18 20:24 33.791645 -118.598552 143 6011ft 279kts
25-Nov-18 20:25 33.726439 -118.544585 146 9580ft 296kts
25-Nov-18 20:26 33.679684 -118.464045 108 13091ft 307kts
25-Nov-18 20:27 33.650629 -118.363975 107 16331ft 329kts
25-Nov-18 20:28 33.644101 -118.255313 86 17006ft 327kts
25-Nov-18 20:29 33.673631 -118.160202 47 18154ft 322kts
25-Nov-18 20:30 33.735327 -118.098595 33 20872ft 329kts
25-Nov-18 20:31 33.793258 -118.046567 33 23040ft 338kts
25-Nov-18 20:32 33.860811 -117.985826 33 25285ft 348kts
25-Nov-18 20:33 33.927211 -117.925907 33 26538ft 378kts
25-Nov-18 20:34 33.993468 -117.865280 33 28466ft 381kts
25-Nov-18 20:35 34.072310 -117.792974 33 30917ft 373kts
25-Nov-18 20:36 34.137321 -117.707188 46 32931ft 374kts
25-Nov-18 20:37 34.202118 -117.610431 46 32730ft 369kts
25-Nov-18 20:38 34.267350 -117.513290 46 32824ft 371kts
25-Nov-18 20:39 34.333870 -117.414112 46 33177ft 398kts
25-Nov-18 20:40 34.405458 -117.306903 47 33186ft 429kts
25-Nov-18 20:41 34.480802 -117.193629 47 33177ft 435kts
25-Nov-18 20:42 34.557195 -117.078932 45 33200ft 443kts
25-Nov-18 20:43 34.637174 -116.962654 46 33204ft 471kts
25-Nov-18 20:44 34.722302 -116.838435 48 33211ft 482kts
25-Nov-18 20:45 34.807300 -116.713663 48 33188ft 466kts
25-Nov-18 20:46 34.895419 -116.604421 35 33214ft 450kts
25-Nov-18 20:47 34.990827 -116.512068 34 33223ft 429kts
25-Nov-18 20:48 35.082440 -116.423109 35 33232ft 420kts
25-Nov-18 20:49 35.166082 -116.324004 43 33232ft 423kts
25-Nov-18 20:50 35.246356 -116.222189 42 30739ft 427kts
25-Nov-18 20:51 35.326354 -116.122288 44 28596ft 401kts
25-Nov-18 20:52 35.398101 -116.018234 49 25953ft 388kts
25-Nov-18 20:53 35.463305 -115.913653 50 23143ft 383kts
25-Nov-18 20:54 35.527600 -115.814084 48 20858ft 370kts
25-Nov-18 20:55 35.590803 -115.718440 48 18100ft 363kts
25-Nov-18 20:56 35.652057 -115.626326 48 16122ft 341kts
25-Nov-18 20:57 35.722197 -115.554959 8 14147ft 315kts
25-Nov-18 20:58 35.802377 -115.573564 359 13169ft 291kts
25-Nov-18 20:59 35.882334 -115.568801 2 13000ft 289kts
25-Nov-18 21:00 35.959286 -115.547035 36 12986ft 292kts
25-Nov-18 21:01 36.003214 -115.463403 66 12307ft 300kts
25-Nov-18 21:02 36.029783 -115.370315 83 11000ft 289kts
25-Nov-18 21:03 36.024751 -115.283280 93 10991ft 270kts
25-Nov-18 21:04 36.019116 -115.208592 93 10758ft 273kts
25-Nov-18 21:05 36.013459 -115.126889 93 9748ft 264kts
25-Nov-18 21:06 36.007895 -115.041849 92 8497ft 260kts
25-Nov-18 21:07 36.004173 -114.955238 89 7244ft 255kts
25-Nov-18 21:08 36.006909 -114.861496 61 6373ft 248kts
25-Nov-18 21:09 36.069586 -114.835071 337 5251ft 224kts
25-Nov-18 21:10 36.086710 -114.894104 241 4905ft 216kts
25-Nov-18 21:11 36.068167 -114.958451 276 4708ft 215kts
25-Nov-18 21:12 36.071870 -115.024480 275 3549ft 207kts
25-Nov-18 21:13 36.074044 -115.083959 272 2700ft 189kts
25-Nov-18 21:14 36.073686 -115.132282 271 2081ft 141kts
25-Nov-18 21:15 36.074683 -115.155057 297 2138ft 0kts
25-Nov-18 21:16 36.074933 -115.155665 296 2140ft 9kts
25-Nov-18 21:17 36.077948 -115.157744 67 2142ft 20kts
25-Nov-18 21:18 36.078008 -115.150487 93 2113ft 18kts
25-Nov-18 21:19 36.078424 -115.145609 93 2096ft 11kts
25-Nov-18 21:20 36.079668 -115.145776 333 2093ft 1kts
25-Nov-18 21:21 36.079771 -115.145838 334 2093ft 0kts
25-Nov-18 21:22 36.079771 -115.145838 334 2093ft 0kts

Navigation Log

Ident Type
Flight plan parsing failed, navigation log unavailable